Weather History for West Plains, MO

Change the Weather History Date:

Sunday, March 10, 2013

  Actual Average Record
Temperature  
Mean Temperature 47 °F 45 °F  
Max Temperature 58 °F 57 °F 82 °F (1995)
Min Temperature 35 °F 34 °F 12 °F (1998)
Degree Days  
Heating Degree Days 18 20  
Month to date heating degree days 258 214  
Since 1 July heating degree days 3570 3678  
Cooling Degree Days 0 0  
Month to date cooling degree days 0 0  
Year to date cooling degree days 0 0  
Moisture  
Dew Point 46 °F    
Average Humidity 83    
Maximum Humidity 93    
Minimum Humidity 72    
Precipitation  
Precipitation 1.64 in 0.12 in 2.41 in (1952)
Month to date precipitation 1.81 1.19  
Year to date precipitation 9.13 6.75  
Sea Level Pressure  
Sea Level Pressure 29.74 in    
Wind  
Wind Speed 10 mph (SW)    
Max Wind Speed 23 mph    
Max Gust Speed 31 mph    
Visibility 6 miles    
Events Fog , Rain , Thunderstorm    
T = Trace of Precipitation, MM = Missing Value Source: NWS Daily Summary

Daily Weather History Graph

Daily Weather History Graph

Search for Another Location

Airport:

Trip Planner

Search our weather history database for the weather conditions in past years. The results will help you decide how hot, cold, wet, or windy it might be!

Date:

Astronomy

Mar. 10, 2013 Rise Set
Actual Time 7:25 AM CDT 7:10 PM CDT
Civil Twilight 6:59 AM CDT 7:36 PM CDT
Nautical Twilight 6:29 AM CDT 8:06 PM CDT
Astronomical Twilight 5:59 AM CDT 8:36 PM CDT
Moon 6:24 AM CDT (3/10) 6:19 PM CDT (3/10)
Length of Visible Light 12h 36m
Length of Day
11h 45m
Waning Crescent, 2% of the Moon is Illuminated
Mar 10
Waning Crescent
Mar 11
New
Mar 19
First Quarter
Mar 27
Full
Apr 2
Last Quarter

Hourly Weather History & Observations

Time (CDT) Temp. Windchill Dew Point Humidity Pressure Visibility Wind Dir Wind Speed Gust Speed Precip Events Conditions
12:53 AM 57.9 °F - 46.9 °F 67% 29.78 in 10.0 mi South 11.5 mph - N/A   Mostly Cloudy
1:30 AM 57.2 °F - 46.4 °F 67% 29.82 in 10.0 mi SSW 11.5 mph 19.6 mph 0.01 in   Overcast
1:42 AM 57.2 °F - 48.2 °F 72% 29.80 in 4.0 mi South 11.5 mph 21.9 mph 0.07 in Rain , Thunderstorm Thunderstorms and Rain
1:53 AM 55.9 °F - 48.9 °F 77% 29.77 in 8.0 mi South 9.2 mph 16.1 mph 0.07 in Rain Light Rain
3:08 AM 55.4 °F - 48.2 °F 77% 29.78 in 10.0 mi South 10.4 mph - 0.00 in   Mostly Cloudy
3:53 AM 55.9 °F - 51.1 °F 84% 29.75 in 10.0 mi South 10.4 mph 18.4 mph 0.00 in   Overcast
4:53 AM 55.9 °F - 52.0 °F 87% 29.74 in 6.0 mi South 11.5 mph 18.4 mph 0.01 in Rain Light Rain
5:20 AM 55.4 °F - 53.6 °F 94% 29.75 in 5.0 mi SSE 10.4 mph - 0.02 in Rain Light Rain
5:41 AM 55.4 °F - 53.6 °F 94% 29.75 in 5.0 mi South 12.7 mph - 0.04 in Rain Light Rain
5:53 AM 55.0 °F - 53.1 °F 93% 29.73 in 5.0 mi South 9.2 mph - 0.04 in Rain Light Rain
6:03 AM 55.4 °F - 53.6 °F 94% 29.74 in 6.0 mi South 9.2 mph - 0.00 in   Overcast
6:46 AM 53.6 °F - 51.8 °F 94% 29.73 in 2.5 mi SE 4.6 mph - 0.11 in Rain Light Rain
7:07 AM 53.6 °F - 51.8 °F 94% 29.73 in 2.0 mi ESE 4.6 mph - 0.05 in Rain Rain
7:18 AM 53.6 °F - 51.8 °F 94% 29.72 in 1.8 mi East 6.9 mph - 0.11 in Rain Heavy Rain
7:37 AM 53.6 °F - 51.8 °F 94% 29.71 in 2.0 mi Calm Calm - 0.19 in Rain Rain
7:44 AM 53.6 °F - 51.8 °F 94% 29.71 in 1.8 mi ESE 3.5 mph - 0.21 in Rain Rain
7:47 AM 53.6 °F - 51.8 °F 94% 29.70 in 2.0 mi ESE 3.5 mph - 0.22 in Rain Rain
7:53 AM 53.1 °F - 52.0 °F 96% 29.69 in 2.5 mi Calm Calm - 0.23 in Rain Light Rain
8:01 AM 53.6 °F - 51.8 °F 94% 29.70 in 1.8 mi West 3.5 mph - 0.02 in Rain Light Rain
8:17 AM 53.6 °F - 51.8 °F 94% 29.70 in 1.0 mi NW 3.5 mph - 0.08 in Rain Rain
8:32 AM 53.6 °F - 51.8 °F 94% 29.69 in 1.0 mi North 3.5 mph - 0.12 in Rain Rain
8:48 AM 53.6 °F - 51.8 °F 94% 29.66 in 0.5 mi North 4.6 mph - 0.17 in Fog , Rain Rain
8:53 AM 53.1 °F - 52.0 °F 96% 29.67 in 0.5 mi Calm Calm - 0.19 in Fog , Rain Rain
9:24 AM 53.6 °F - 51.8 °F 94% 29.68 in 0.8 mi North 3.5 mph - 0.15 in Rain Rain
9:29 AM 53.6 °F - 51.8 °F 94% 29.71 in 0.8 mi West 9.2 mph - 0.17 in Rain Rain
9:37 AM 51.8 °F - 50.0 °F 94% 29.74 in 1.0 mi WNW 21.9 mph 26.5 mph 0.26 in Rain Heavy Rain
9:48 AM 51.8 °F - 48.2 °F 88% 29.74 in 1.0 mi WNW 13.8 mph 23.0 mph 0.38 in Rain Heavy Rain
9:53 AM 51.1 °F - 48.9 °F 92% 29.73 in 1.2 mi West 18.4 mph 26.5 mph 0.41 in Rain Heavy Rain
10:07 AM 50.0 °F - 46.4 °F 87% 29.74 in 2.5 mi NW 18.4 mph 27.6 mph 0.07 in Rain Rain
10:15 AM 50.0 °F - 46.4 °F 87% 29.72 in 5.0 mi NW 16.1 mph 27.6 mph 0.08 in Rain Light Rain
10:53 AM 48.9 °F - 45.0 °F 86% 29.76 in 2.5 mi WNW 9.2 mph 19.6 mph 0.13 in Rain Rain
11:07 AM 48.2 °F - 44.6 °F 87% 29.77 in 5.0 mi WNW 9.2 mph 18.4 mph 0.02 in Rain Light Rain
11:53 AM 48.0 °F - 46.0 °F 93% 29.77 in 3.0 mi WNW 9.2 mph - 0.10 in Rain Light Rain
12:14 PM 48.2 °F - 46.4 °F 93% 29.79 in 2.0 mi West 5.8 mph - 0.05 in Rain Rain
12:26 PM 48.2 °F - 46.4 °F 93% 29.78 in 1.0 mi Calm Calm - 0.13 in Rain Heavy Rain
12:39 PM 48.2 °F - 44.6 °F 87% 29.77 in 2.0 mi ESE 4.6 mph - 0.18 in Rain Rain
12:48 PM 48.2 °F - 46.4 °F 93% 29.75 in 4.0 mi East 4.6 mph - 0.20 in Rain Rain
12:53 PM 48.0 °F - 46.0 °F 93% 29.73 in 4.0 mi East 5.8 mph - 0.22 in Rain Rain
1:45 PM 48.2 °F - 46.4 °F 93% 29.67 in 9.0 mi ENE 5.8 mph - 0.07 in Rain Light Rain
1:53 PM 48.0 °F - 46.0 °F 93% 29.65 in 10.0 mi ESE 8.1 mph - 0.07 in Rain Light Rain
2:09 PM 48.2 °F - 46.4 °F 93% 29.69 in 5.0 mi South 3.5 mph - 0.01 in Rain Light Rain
2:38 PM 48.2 °F - 46.4 °F 93% 29.69 in 10.0 mi South 4.6 mph - 0.01 in   Overcast
2:53 PM 50.0 °F - 48.0 °F 93% 29.69 in 10.0 mi South 8.1 mph - 0.01 in   Overcast
3:00 PM 51.8 °F - 48.2 °F 88% 29.70 in 10.0 mi South 8.1 mph - N/A   Overcast
3:15 PM 51.8 °F - 48.2 °F 88% 29.71 in 10.0 mi South 10.4 mph 16.1 mph N/A   Overcast
3:53 PM 54.0 °F - 48.0 °F 80% 29.70 in 10.0 mi South 11.5 mph - N/A   Mostly Cloudy
4:02 PM 53.6 °F - 48.2 °F 82% 29.71 in 10.0 mi SSW 11.5 mph - N/A   Mostly Cloudy
4:13 PM 53.6 °F - 46.4 °F 77% 29.71 in 10.0 mi SW 8.1 mph - N/A   Overcast
4:35 PM 53.6 °F - 46.4 °F 77% 29.70 in 10.0 mi South 11.5 mph - N/A   Mostly Cloudy
4:53 PM 55.0 °F - 46.9 °F 74% 29.69 in 10.0 mi SW 11.5 mph - N/A   Scattered Clouds
5:07 PM 53.6 °F - 46.4 °F 77% 29.70 in 10.0 mi SSW 12.7 mph 18.4 mph N/A   Mostly Cloudy
5:18 PM 53.6 °F - 46.4 °F 77% 29.70 in 10.0 mi SSW 10.4 mph - N/A   Mostly Cloudy
5:53 PM 54.0 °F - 46.9 °F 77% 29.68 in 10.0 mi South 6.9 mph - N/A   Overcast
6:11 PM 48.2 °F - 44.6 °F 87% 29.72 in 4.0 mi WSW 19.6 mph 27.6 mph 0.03 in Rain Light Rain
6:41 PM 46.4 °F 41.9 °F 42.8 °F 87% 29.74 in 10.0 mi West 9.2 mph - 0.03 in   Overcast
6:53 PM 46.0 °F 41.0 °F 42.1 °F 86% 29.74 in 10.0 mi WSW 10.4 mph - 0.03 in   Overcast
7:07 PM 46.4 °F 42.4 °F 42.8 °F 87% 29.75 in 10.0 mi WSW 8.1 mph - N/A   Overcast
7:53 PM 45.0 °F 40.1 °F 39.0 °F 80% 29.78 in 10.0 mi WSW 9.2 mph 17.3 mph N/A   Overcast
8:53 PM 43.0 °F 35.7 °F 36.0 °F 76% 29.79 in 10.0 mi West 15.0 mph - N/A   Overcast
9:27 PM 42.8 °F 36.2 °F 35.6 °F 76% 29.80 in 10.0 mi West 12.7 mph 19.6 mph N/A   Overcast
9:53 PM 41.0 °F 33.5 °F 36.0 °F 82% 29.82 in 10.0 mi West 13.8 mph 18.4 mph N/A   Overcast
10:46 PM 39.2 °F 31.6 °F 33.8 °F 81% 29.82 in 10.0 mi West 12.7 mph 21.9 mph N/A   Overcast
10:53 PM 39.0 °F 31.4 °F 34.0 °F 82% 29.83 in 10.0 mi West 12.7 mph 20.7 mph N/A   Overcast
11:17 PM 37.4 °F 28.9 °F 33.8 °F 87% 29.83 in 10.0 mi West 13.8 mph 19.6 mph N/A   Overcast
11:53 PM 37.0 °F 29.3 °F 32.0 °F 82% 29.85 in 10.0 mi West 11.5 mph - N/A   Overcast
12:43 AM 35.6 °F 26.2 °F 30.2 °F 81% 29.83 in 10.0 mi West 15.0 mph 19.6 mph N/A   Overcast
12:53 AM 36.0 °F 27.1 °F 30.0 °F 79% 29.84 in 10.0 mi West 13.8 mph 20.7 mph N/A   Overcast